createdAt,value
2018-11-01T00:00:21.857Z,5.97
2018-11-01T00:02:51.546Z,6.00
2018-11-01T00:05:21.291Z,6.02
2018-11-01T00:07:50.928Z,5.95
2018-11-01T00:10:20.704Z,5.96
2018-11-01T00:12:50.353Z,5.98
2018-11-01T00:15:20.121Z,5.94
2018-11-01T00:17:49.778Z,6.00
2018-11-01T00:20:19.519Z,6.05
2018-11-01T00:22:49.169Z,6.05
2018-11-01T00:25:18.854Z,6.02
2018-11-01T00:27:48.598Z,6.03
2018-11-01T00:30:18.314Z,6.03
2018-11-01T00:32:47.980Z,6.02
2018-11-01T00:35:17.672Z,6.03
2018-11-01T00:37:47.308Z,6.03
2018-11-01T00:40:17.000Z,6.02
2018-11-01T00:42:46.697Z,5.92
2018-11-01T00:45:16.342Z,5.94
2018-11-01T00:47:46.055Z,5.85
2018-11-01T00:50:16.188Z,5.84
2018-11-01T00:52:45.833Z,5.84
2018-11-01T00:55:15.649Z,5.79
2018-11-01T00:57:45.354Z,5.78
2018-11-01T01:00:16.191Z,5.80
2018-11-01T01:02:45.964Z,5.75
2018-11-01T01:05:15.646Z,5.69
2018-11-01T01:07:45.317Z,5.66
2018-11-01T01:10:17.232Z,5.60
2018-11-01T01:12:48.022Z,5.59
2018-11-01T01:15:17.703Z,5.60
2018-11-01T01:17:47.440Z,5.57
2018-11-01T01:20:17.854Z,5.50
2018-11-01T01:22:48.185Z,5.51
2018-11-01T01:25:18.926Z,5.46
2018-11-01T01:27:48.947Z,5.50
2018-11-01T01:30:20.184Z,5.41
2018-11-01T01:32:50.516Z,5.38
2018-11-01T01:35:20.182Z,5.32
2018-11-01T01:37:49.967Z,5.27
2018-11-01T01:40:19.626Z,5.21
2018-11-01T01:42:54.369Z,5.22
2018-11-01T01:45:24.789Z,5.16
2018-11-01T01:47:54.517Z,5.21
2018-11-01T01:50:24.187Z,5.22
2018-11-01T01:52:53.927Z,5.15
2018-11-01T01:55:23.582Z,5.25
2018-11-01T01:57:53.231Z,5.22
2018-11-01T02:00:22.868Z,5.17
2018-11-01T02:02:53.169Z,5.15
2018-11-01T02:05:22.792Z,5.18
2018-11-01T02:07:52.438Z,5.11
2018-11-01T02:10:22.073Z,5.06
2018-11-01T02:12:51.807Z,5.16
2018-11-01T02:15:21.989Z,5.20
2018-11-01T02:17:51.732Z,5.18
2018-11-01T02:20:21.854Z,5.14
2018-11-01T02:22:51.601Z,5.13
2018-11-01T02:25:21.255Z,5.15
2018-11-01T02:27:56.188Z,5.08
2018-11-01T02:30:25.850Z,5.01
2018-11-01T02:32:55.601Z,4.99
2018-11-01T02:35:25.255Z,5.07
2018-11-01T02:37:55.001Z,4.97
2018-11-01T02:40:24.629Z,4.89
2018-11-01T02:42:54.401Z,4.89
2018-11-01T02:45:24.118Z,4.91
2018-11-01T02:47:53.793Z,4.88
2018-11-01T02:50:23.455Z,4.85
2018-11-01T02:52:53.119Z,4.78
2018-11-01T02:55:22.832Z,4.73
2018-11-01T02:57:52.481Z,4.75
2018-11-01T03:00:22.274Z,4.74
2018-11-01T03:02:51.922Z,4.72
2018-11-01T03:05:21.683Z,4.60
2018-11-01T03:07:51.352Z,4.55
2018-11-01T03:10:21.116Z,4.58
2018-11-01T03:12:50.778Z,4.58
2018-11-01T03:15:20.554Z,4.59
2018-11-01T03:17:50.210Z,4.59
2018-11-01T03:20:19.913Z,4.61
2018-11-01T03:22:49.609Z,4.58
2018-11-01T03:25:19.340Z,4.62
2018-11-01T03:27:49.057Z,4.59
2018-11-01T03:30:18.746Z,4.54
2018-11-01T03:32:48.423Z,4.56
2018-11-01T03:35:18.252Z,4.58
2018-11-01T03:37:47.872Z,4.62
2018-11-01T03:40:17.566Z,4.66
2018-11-01T03:42:47.242Z,4.69
2018-11-01T03:45:17.007Z,4.64
2018-11-01T03:47:46.683Z,4.60
2018-11-01T03:50:16.380Z,4.57
2018-11-01T03:52:46.052Z,4.47
2018-11-01T03:55:15.765Z,4.40
2018-11-01T03:57:45.546Z,4.40
2018-11-01T04:00:16.571Z,4.40
2018-11-01T04:02:47.512Z,4.36
2018-11-01T04:05:17.256Z,4.36
2018-11-01T04:07:46.948Z,4.29
2018-11-01T04:10:16.650Z,4.32
2018-11-01T04:12:46.349Z,4.29
2018-11-01T04:15:16.207Z,4.25
2018-11-01T04:17:45.835Z,4.19
2018-11-01T04:20:15.606Z,4.14
2018-11-01T04:22:45.299Z,4.11
2018-11-01T04:25:15.038Z,4.01
2018-11-01T04:27:44.665Z,4.08
2018-11-01T04:30:14.392Z,3.96
2018-11-01T04:32:44.070Z,3.91
2018-11-01T04:35:13.702Z,3.93
2018-11-01T04:37:43.320Z,3.97
2018-11-01T04:40:13.046Z,3.97
2018-11-01T04:42:42.812Z,3.99
2018-11-01T04:45:13.109Z,3.91
2018-11-01T04:47:42.704Z,3.87
2018-11-01T04:50:12.853Z,3.91
2018-11-01T04:52:43.186Z,3.89
2018-11-01T04:55:12.789Z,3.88
2018-11-01T04:57:42.385Z,3.98
2018-11-01T05:00:14.558Z,3.93
2018-11-01T05:02:44.593Z,3.98
2018-11-01T05:05:14.417Z,3.96
2018-11-01T05:07:43.980Z,3.96
2018-11-01T05:10:13.829Z,4.00
2018-11-01T05:12:43.501Z,4.15
2018-11-01T05:15:13.272Z,4.17
2018-11-01T05:17:42.831Z,4.12
2018-11-01T05:20:13.282Z,4.15
2018-11-01T05:22:42.866Z,4.06
2018-11-01T05:25:12.540Z,4.13
2018-11-01T05:27:42.185Z,4.17
2018-11-01T05:30:13.538Z,4.18
2018-11-01T05:32:43.446Z,4.08
2018-11-01T05:35:13.063Z,4.05
2018-11-01T05:37:42.636Z,4.00
2018-11-01T05:40:13.001Z,3.98
2018-11-01T05:42:43.460Z,4.03
2018-11-01T05:45:13.550Z,4.05
2018-11-01T05:47:43.186Z,4.17
2018-11-01T05:50:12.955Z,4.21
2018-11-01T05:52:42.605Z,4.23
2018-11-01T05:55:13.332Z,4.20
2018-11-01T05:57:42.971Z,4.21
2018-11-01T06:00:14.115Z,4.20
2018-11-01T06:02:45.683Z,4.11
2018-11-01T06:05:15.369Z,4.07
2018-11-01T06:07:53.300Z,3.93
2018-11-01T06:10:22.920Z,3.96
2018-11-01T06:12:52.658Z,3.96
2018-11-01T06:15:22.531Z,3.94
2018-11-01T06:17:52.190Z,4.02
2018-11-01T06:20:21.808Z,4.06
2018-11-01T06:22:51.476Z,4.07
2018-11-01T06:25:21.094Z,4.08
2018-11-01T06:27:50.849Z,4.03
2018-11-01T06:30:20.543Z,4.09
2018-11-01T06:32:50.136Z,4.20
2018-11-01T06:35:24.901Z,4.26
2018-11-01T06:37:54.658Z,4.23
2018-11-01T06:40:24.378Z,4.26
2018-11-01T06:42:53.936Z,4.30
2018-11-01T06:45:23.551Z,4.14
2018-11-01T06:47:53.159Z,4.16
2018-11-01T06:50:22.893Z,4.22
2018-11-01T06:52:52.497Z,4.26
2018-11-01T06:55:22.209Z,4.33
2018-11-01T06:57:51.824Z,4.30
2018-11-01T07:00:21.540Z,4.19
2018-11-01T07:02:51.153Z,4.03
2018-11-01T07:05:20.855Z,4.15
2018-11-01T07:07:50.442Z,4.16
2018-11-01T07:10:20.162Z,4.24
2018-11-01T07:12:49.776Z,4.31
2018-11-01T07:15:19.493Z,4.27
2018-11-01T07:17:49.080Z,4.32
2018-11-01T07:20:18.770Z,4.40
2018-11-01T07:22:48.349Z,4.30
2018-11-01T07:25:18.289Z,4.39
2018-11-01T07:27:47.894Z,4.30
2018-11-01T07:30:18.431Z,4.35
2018-11-01T07:32:48.183Z,4.52
2018-11-01T07:35:17.746Z,4.65
2018-11-01T07:37:47.567Z,4.65
2018-11-01T07:40:18.288Z,4.74
2018-11-01T07:42:47.917Z,4.91
2018-11-01T07:45:17.626Z,4.98
2018-11-01T07:47:47.294Z,5.09
2018-11-01T07:50:16.931Z,5.14
2018-11-01T07:52:46.641Z,5.19
2018-11-01T07:55:16.653Z,5.11
2018-11-01T07:57:46.281Z,5.27
2018-11-01T08:00:17.194Z,5.30
2018-11-01T08:02:47.621Z,5.53
2018-11-01T08:05:17.632Z,5.69
2018-11-01T08:07:47.276Z,5.66
2018-11-01T08:10:18.172Z,5.78
2018-11-01T08:12:48.505Z,5.74
2018-11-01T08:15:19.659Z,5.78
2018-11-01T08:17:49.302Z,5.66
2018-11-01T08:20:19.326Z,5.87
2018-11-01T08:22:48.655Z,5.65
2018-11-01T08:25:18.293Z,5.68
2018-11-01T08:27:47.956Z,5.67
2018-11-01T08:30:18.526Z,5.80
2018-11-01T08:32:48.143Z,5.88
2018-11-01T08:35:17.875Z,5.98
2018-11-01T08:37:47.525Z,5.97
2018-11-01T08:40:17.213Z,5.91
2018-11-01T08:42:46.837Z,6.07
2018-11-01T08:45:16.863Z,6.10
2018-11-01T08:47:46.540Z,6.27
2018-11-01T08:50:16.591Z,6.10
2018-11-01T08:52:46.212Z,6.19
2018-11-01T08:55:16.026Z,6.33
2018-11-01T08:57:46.338Z,6.40
2018-11-01T09:00:16.051Z,6.50
2018-11-01T09:02:45.882Z,6.48
2018-11-01T09:05:15.602Z,6.37
2018-11-01T09:07:45.380Z,6.40
2018-11-01T09:10:16.353Z,6.46
2018-11-01T09:12:46.175Z,6.43
2018-11-01T09:15:16.967Z,6.53
2018-11-01T09:17:46.669Z,6.59
2018-11-01T09:20:16.448Z,6.77
2018-11-01T09:22:46.028Z,6.91
2018-11-01T09:25:15.690Z,7.03
2018-11-01T09:27:45.282Z,7.09
2018-11-01T09:30:15.852Z,7.13
2018-11-01T09:32:45.463Z,7.20
2018-11-01T09:35:15.180Z,7.21
2018-11-01T09:37:44.765Z,7.13
2018-11-01T09:40:15.638Z,7.31
2018-11-01T09:42:45.712Z,7.38
2018-11-01T09:45:15.425Z,7.06
2018-11-01T09:47:45.207Z,7.15
2018-11-01T09:50:14.762Z,7.17
2018-11-01T09:52:44.362Z,7.20
2018-11-01T09:55:14.043Z,7.31
2018-11-01T09:57:43.628Z,7.49
2018-11-01T10:00:14.620Z,7.65
2018-11-01T10:02:44.629Z,7.73
2018-11-01T10:05:14.254Z,7.94
2018-11-01T10:07:43.882Z,7.68
2018-11-01T10:10:14.072Z,7.89
2018-11-01T10:12:43.634Z,7.60
2018-11-01T10:15:13.756Z,7.76
2018-11-01T10:17:43.629Z,7.76
2018-11-01T10:20:14.162Z,7.89
2018-11-01T10:22:44.214Z,7.88
2018-11-01T10:25:15.266Z,7.96
2018-11-01T10:27:44.855Z,8.12
2018-11-01T10:30:16.605Z,8.08
2018-11-01T10:32:46.362Z,8.06
2018-11-01T10:35:17.401Z,8.17
2018-11-01T10:37:46.981Z,8.27
2018-11-01T10:40:18.062Z,8.21
2018-11-01T10:42:47.701Z,8.53
2018-11-01T10:45:17.393Z,8.66
2018-11-01T10:47:47.244Z,8.54
2018-11-01T10:50:18.026Z,8.91
2018-11-01T10:52:47.632Z,9.08
2018-11-01T10:55:17.282Z,9.27
2018-11-01T10:57:46.933Z,9.51
2018-11-01T11:00:21.912Z,9.61
2018-11-01T11:02:52.305Z,9.29
2018-11-01T11:05:22.823Z,9.18
2018-11-01T11:07:52.469Z,9.38
2018-11-01T11:10:22.112Z,9.49
2018-11-01T11:12:51.729Z,9.37
2018-11-01T11:15:21.411Z,9.47
2018-11-01T11:17:51.053Z,9.30
2018-11-01T11:20:20.876Z,9.25
2018-11-01T11:22:50.354Z,9.77
2018-11-01T11:25:20.038Z,10.12
2018-11-01T11:27:49.661Z,10.03
2018-11-01T11:30:19.471Z,10.21
2018-11-01T11:32:49.043Z,11.95
2018-11-01T11:35:18.784Z,14.43
2018-11-01T11:37:48.533Z,14.24
2018-11-01T11:40:18.186Z,15.43
2018-11-01T11:42:47.803Z,15.42
2018-11-01T11:45:17.481Z,15.85
2018-11-01T11:47:47.208Z,15.22
2018-11-01T11:50:16.808Z,13.67
2018-11-01T11:52:46.910Z,13.95
2018-11-01T11:55:16.540Z,13.20
2018-11-01T11:57:46.246Z,12.70
2018-11-01T12:00:16.646Z,11.41
2018-11-01T12:02:46.767Z,11.33
2018-11-01T12:05:16.434Z,10.87
2018-11-01T12:07:46.142Z,10.91
2018-11-01T12:10:15.771Z,11.25
2018-11-01T12:12:45.443Z,11.93
2018-11-01T12:15:15.093Z,12.35
2018-11-01T12:17:44.777Z,11.79
2018-11-01T12:20:14.734Z,11.34
2018-11-01T12:22:44.467Z,10.98
2018-11-01T12:25:14.105Z,10.69
2018-11-01T12:27:43.818Z,11.05
2018-11-01T12:30:13.870Z,11.51
2018-11-01T12:32:43.629Z,12.12
2018-11-01T12:35:13.318Z,13.40
2018-11-01T12:37:42.967Z,12.21
2018-11-01T12:40:13.527Z,12.31
2018-11-01T12:42:43.136Z,12.34
2018-11-01T12:45:13.798Z,12.35
2018-11-01T12:47:43.573Z,11.92
2018-11-01T12:50:14.379Z,11.77
2018-11-01T12:52:43.819Z,11.58
2018-11-01T12:55:13.433Z,11.86
2018-11-01T12:57:43.144Z,11.37
2018-11-01T13:00:13.573Z,10.98
2018-11-01T13:02:43.396Z,11.14
2018-11-01T13:05:12.994Z,11.14
2018-11-01T13:07:42.686Z,12.06
2018-11-01T13:10:12.289Z,12.40
2018-11-01T13:12:41.904Z,12.22
2018-11-01T13:15:12.649Z,13.98
2018-11-01T13:17:42.457Z,12.73
2018-11-01T13:20:12.173Z,12.49
2018-11-01T13:22:41.983Z,12.97
2018-11-01T13:25:12.412Z,13.65
2018-11-01T13:27:42.117Z,13.31
2018-11-01T13:30:14.990Z,14.27
2018-11-01T13:32:45.612Z,13.53
2018-11-01T13:35:15.563Z,14.18
2018-11-01T13:37:45.151Z,14.93
2018-11-01T13:40:15.143Z,12.03
2018-11-01T13:42:44.469Z,12.08
2018-11-01T13:45:14.066Z,11.76
2018-11-01T13:47:43.725Z,12.45
2018-11-01T13:50:13.498Z,11.82
2018-11-01T13:52:43.183Z,12.01
2018-11-01T13:55:13.430Z,13.41
2018-11-01T13:57:43.118Z,14.93
2018-11-01T14:00:14.006Z,14.57
2018-11-01T14:02:43.969Z,13.61
2018-11-01T14:05:17.287Z,12.66
2018-11-01T14:07:47.029Z,14.25
2018-11-01T14:10:17.010Z,14.65
2018-11-01T14:12:46.752Z,13.60
2018-11-01T14:15:16.745Z,14.19
2018-11-01T14:17:46.057Z,13.37
2018-11-01T14:20:15.668Z,15.44
2018-11-01T14:22:45.361Z,13.54
2018-11-01T14:25:15.002Z,14.08
2018-11-01T14:27:44.622Z,14.31
2018-11-01T14:30:15.503Z,13.29
2018-11-01T14:32:45.052Z,13.62
2018-11-01T14:35:14.685Z,14.94
2018-11-01T14:37:44.374Z,14.04
2018-11-01T14:40:14.751Z,14.29
2018-11-01T14:42:44.501Z,14.39
2018-11-01T14:45:14.151Z,13.70
2018-11-01T14:47:44.050Z,12.73
2018-11-01T14:50:13.610Z,14.30
2018-11-01T14:52:43.955Z,14.47
2018-11-01T14:55:13.347Z,12.31
2018-11-01T14:57:43.860Z,11.96
2018-11-01T15:00:12.636Z,11.37
2018-11-01T15:02:42.262Z,11.33
2018-11-01T15:05:12.146Z,11.30
2018-11-01T15:07:41.971Z,11.07
2018-11-01T15:10:14.599Z,11.10
2018-11-01T15:12:45.100Z,10.76
2018-11-01T15:15:14.802Z,10.74
2018-11-01T15:17:44.437Z,10.56
2018-11-01T15:20:14.114Z,10.52
2018-11-01T15:22:43.855Z,10.42
2018-11-01T15:25:13.463Z,10.34
2018-11-01T15:27:43.216Z,10.31
2018-11-01T15:30:15.516Z,10.33
2018-11-01T15:32:45.210Z,10.29
2018-11-01T15:35:14.938Z,10.27
2018-11-01T15:37:44.576Z,10.16
2018-11-01T15:40:14.535Z,10.07
2018-11-01T15:42:44.648Z,10.02
2018-11-01T15:45:14.968Z,9.98
2018-11-01T15:47:44.730Z,10.02
2018-11-01T15:50:14.922Z,9.86
2018-11-01T15:52:44.827Z,9.78
2018-11-01T15:55:14.436Z,9.75
2018-11-01T15:57:44.154Z,9.70
2018-11-01T16:00:14.661Z,9.68
2018-11-01T16:02:45.219Z,9.64
2018-11-01T16:05:15.614Z,9.58
2018-11-01T16:07:45.739Z,9.51
2018-11-01T16:10:15.393Z,9.49
2018-11-01T16:12:45.061Z,9.32
2018-11-01T16:15:15.897Z,9.31
2018-11-01T16:17:45.606Z,9.28
2018-11-01T16:20:15.262Z,9.18
2018-11-01T16:22:44.808Z,9.19
2018-11-01T16:25:14.401Z,9.19
2018-11-01T16:27:44.018Z,9.01
2018-11-01T16:30:13.614Z,9.09
2018-11-01T16:32:43.231Z,9.02
2018-11-01T16:35:12.861Z,9.00
2018-11-01T16:37:42.598Z,8.85
2018-11-01T16:40:12.786Z,8.78
2018-11-01T16:42:42.548Z,8.51
2018-11-01T16:45:15.583Z,8.55
2018-11-01T16:47:45.384Z,8.53
2018-11-01T16:50:15.033Z,8.44
2018-11-01T16:52:44.695Z,8.42
2018-11-01T16:55:14.382Z,8.36
2018-11-01T16:57:44.043Z,8.24
2018-11-01T17:00:14.365Z,8.24
2018-11-01T17:02:44.069Z,8.16
2018-11-01T17:05:13.709Z,8.16
2018-11-01T17:07:43.418Z,7.98
2018-11-01T17:10:14.333Z,7.56
2018-11-01T17:12:43.975Z,7.49
2018-11-01T17:15:14.896Z,7.26
2018-11-01T17:17:45.073Z,7.32
2018-11-01T17:20:14.720Z,7.07
2018-11-01T17:22:44.418Z,7.18
2018-11-01T17:25:14.180Z,7.23
2018-11-01T17:27:43.738Z,7.28
2018-11-01T17:30:13.411Z,7.27
2018-11-01T17:32:51.058Z,7.22
2018-11-01T17:35:20.706Z,7.24
2018-11-01T17:37:50.415Z,7.20
2018-11-01T17:40:20.053Z,7.12
2018-11-01T17:42:49.756Z,7.07
2018-11-01T17:45:19.440Z,7.03
2018-11-01T17:47:49.073Z,6.88
2018-11-01T17:50:18.690Z,6.75
2018-11-01T17:52:48.289Z,6.57
2018-11-01T17:55:17.923Z,6.76
2018-11-01T17:57:47.691Z,6.86
2018-11-01T18:00:17.761Z,6.99
2018-11-01T18:02:47.502Z,6.95
2018-11-01T18:05:17.095Z,6.94
2018-11-01T18:07:46.776Z,6.91
2018-11-01T18:10:16.391Z,6.81
2018-11-01T18:12:46.050Z,6.79
2018-11-01T18:15:15.682Z,6.77
2018-11-01T18:17:45.390Z,6.67
2018-11-01T18:20:15.063Z,6.59
2018-11-01T18:22:45.303Z,6.59
2018-11-01T18:25:16.489Z,6.71
2018-11-01T18:27:46.132Z,6.65
2018-11-01T18:30:17.148Z,6.76
2018-11-01T18:32:47.159Z,6.70
2018-11-01T18:35:16.731Z,6.78
2018-11-01T18:37:46.343Z,6.76
2018-11-01T18:40:17.369Z,6.88
2018-11-01T18:42:47.015Z,6.76
2018-11-01T18:45:16.884Z,6.92
2018-11-01T18:47:46.523Z,6.88
2018-11-01T18:50:17.238Z,6.68
2018-11-01T18:52:46.881Z,6.63
2018-11-01T18:55:16.581Z,6.77
2018-11-01T18:57:46.225Z,6.91
2018-11-01T19:00:16.958Z,6.99
2018-11-01T19:02:46.909Z,7.14
2018-11-01T19:05:16.601Z,6.97
2018-11-01T19:07:46.438Z,6.91
2018-11-01T19:10:16.345Z,6.83
2018-11-01T19:12:45.931Z,6.66
2018-11-01T19:15:16.211Z,6.55
2018-11-01T19:17:45.808Z,6.58
2018-11-01T19:20:15.479Z,6.70
2018-11-01T19:22:45.088Z,7.00
2018-11-01T19:25:14.797Z,7.02
2018-11-01T19:27:44.436Z,7.16
2018-11-01T19:30:14.218Z,7.25
2018-11-01T19:32:44.052Z,7.44
2018-11-01T19:35:14.368Z,7.42
2018-11-01T19:37:43.951Z,7.54
2018-11-01T19:40:15.629Z,7.43
2018-11-01T19:42:45.653Z,7.61
2018-11-01T19:45:15.265Z,7.72
2018-11-01T19:47:44.897Z,7.82
2018-11-01T19:50:15.809Z,7.87
2018-11-01T19:52:45.498Z,7.92
2018-11-01T19:55:15.219Z,7.92
2018-11-01T19:57:44.810Z,7.90
2018-11-01T20:00:16.697Z,7.83
2018-11-01T20:02:47.418Z,7.85
2018-11-01T20:05:17.005Z,7.83
2018-11-01T20:07:46.566Z,8.08
2018-11-01T20:10:16.597Z,8.10
2018-11-01T20:12:46.198Z,8.14
2018-11-01T20:15:15.865Z,8.21
2018-11-01T20:17:45.464Z,8.18
2018-11-01T20:20:15.306Z,8.16
2018-11-01T20:22:45.789Z,8.20
2018-11-01T20:25:15.434Z,8.28
2018-11-01T20:27:45.334Z,8.37
2018-11-01T20:30:16.173Z,8.34
2018-11-01T20:32:46.169Z,8.40
2018-11-01T20:35:16.570Z,8.44
2018-11-01T20:37:46.274Z,8.46
2018-11-01T20:40:15.910Z,8.40
2018-11-01T20:42:45.632Z,8.46
2018-11-01T20:45:15.287Z,8.41
2018-11-01T20:47:44.982Z,8.39
2018-11-01T20:50:15.141Z,8.45
2018-11-01T20:52:44.784Z,8.22
2018-11-01T20:55:14.392Z,7.99
2018-11-01T20:57:44.255Z,7.86
2018-11-01T21:00:14.946Z,7.87
2018-11-01T21:02:44.643Z,7.90
2018-11-01T21:05:14.284Z,7.94
2018-11-01T21:07:43.958Z,7.87
2018-11-01T21:10:13.674Z,7.88
2018-11-01T21:12:43.317Z,7.95
2018-11-01T21:15:14.307Z,7.98
2018-11-01T21:17:43.929Z,7.94
2018-11-01T21:20:13.667Z,7.97
2018-11-01T21:22:43.293Z,7.87
2018-11-01T21:25:13.257Z,7.90
2018-11-01T21:27:43.165Z,7.89
2018-11-01T21:30:12.865Z,7.82
2018-11-01T21:32:42.745Z,7.79
2018-11-01T21:35:12.495Z,7.72
2018-11-01T21:37:42.182Z,7.71
2018-11-01T21:40:12.451Z,7.70
2018-11-01T21:42:42.139Z,7.60
2018-11-01T21:45:13.368Z,7.54
2018-11-01T21:47:43.564Z,7.42
2018-11-01T21:50:13.555Z,7.35
2018-11-01T21:52:43.247Z,7.38
2018-11-01T21:55:12.839Z,7.36
2018-11-01T21:57:42.432Z,7.39
2018-11-01T22:00:12.348Z,7.35
2018-11-01T22:02:42.577Z,7.29
2018-11-01T22:05:12.395Z,7.28
2018-11-01T22:07:42.126Z,7.23
2018-11-01T22:10:12.106Z,7.18
2018-11-01T22:12:41.814Z,7.08
2018-11-01T22:15:12.800Z,7.01
2018-11-01T22:17:43.098Z,6.95
2018-11-01T22:20:12.903Z,6.95
2018-11-01T22:22:42.633Z,6.91
2018-11-01T22:25:12.229Z,6.86
2018-11-01T22:27:42.013Z,6.84
2018-11-01T22:30:12.349Z,6.76
2018-11-01T22:32:42.918Z,6.68
2018-11-01T22:35:12.610Z,6.61
2018-11-01T22:37:42.911Z,6.71
2018-11-01T22:40:12.635Z,6.88
2018-11-01T22:42:42.228Z,7.00
2018-11-01T22:45:12.659Z,7.05
2018-11-01T22:47:42.571Z,6.96
2018-11-01T22:50:12.494Z,7.01
2018-11-01T22:52:42.191Z,6.89
2018-11-01T22:55:12.712Z,6.73
2018-11-01T22:57:42.633Z,6.64
2018-11-01T23:00:14.694Z,6.41
2018-11-01T23:02:44.918Z,6.30
2018-11-01T23:05:14.823Z,6.19
2018-11-01T23:07:44.595Z,6.20
2018-11-01T23:10:15.380Z,6.21
2018-11-01T23:12:45.312Z,6.53
2018-11-01T23:15:14.991Z,6.48
2018-11-01T23:17:44.638Z,6.48
2018-11-01T23:20:14.473Z,6.53
2018-11-01T23:22:44.144Z,6.82
2018-11-01T23:25:14.165Z,6.87
2018-11-01T23:27:43.912Z,7.22
2018-11-01T23:30:13.575Z,6.82
2018-11-01T23:32:43.507Z,6.45
2018-11-01T23:35:13.296Z,6.27
2018-11-01T23:37:48.176Z,6.19
2018-11-01T23:40:23.205Z,6.39
2018-11-01T23:42:58.069Z,6.19
2018-11-01T23:45:32.735Z,6.26
2018-11-01T23:48:01.391Z,6.20
2018-11-01T23:50:36.693Z,6.05
2018-11-01T23:53:14.929Z,6.02
2018-11-01T23:55:44.534Z,6.07
2018-11-01T23:58:14.330Z,6.03
